sensor_id;sensor_type;location;lat;lon;timestamp;pressure;altitude;pressure_sealevel;temperature;humidity
12360;BME280;6244;51.460;7.090;2023-05-11T00:02:24;100441.97;;;13.46;79.25
12360;BME280;6244;51.460;7.090;2023-05-11T00:07:22;100445.22;;;13.77;78.43
12360;BME280;6244;51.460;7.090;2023-05-11T00:12:18;100452.38;;;13.88;77.81
12360;BME280;6244;51.460;7.090;2023-05-11T00:17:15;100442.16;;;13.83;77.84
12360;BME280;6244;51.460;7.090;2023-05-11T00:22:13;100454.78;;;13.52;78.25
12360;BME280;6244;51.460;7.090;2023-05-11T00:27:10;100450.88;;;13.18;79.85
12360;BME280;6244;51.460;7.090;2023-05-11T00:32:07;100442.38;;;13.28;79.98
12360;BME280;6244;51.460;7.090;2023-05-11T00:37:04;100446.88;;;13.26;80.04
12360;BME280;6244;51.460;7.090;2023-05-11T00:42:00;100443.22;;;13.14;80.48
12360;BME280;6244;51.460;7.090;2023-05-11T00:46:59;100432.38;;;13.45;79.59
12360;BME280;6244;51.460;7.090;2023-05-11T00:51:56;100441.53;;;12.86;81.03
12360;BME280;6244;51.460;7.090;2023-05-11T00:56:57;100447.28;;;12.64;83.02
12360;BME280;6244;51.460;7.090;2023-05-11T01:01:53;100442.03;;;12.78;83.29
12360;BME280;6244;51.460;7.090;2023-05-11T01:06:57;100447.78;;;12.98;81.96
12360;BME280;6244;51.460;7.090;2023-05-11T01:12:05;100449.16;;;12.90;82.10
12360;BME280;6244;51.460;7.090;2023-05-11T01:17:08;100448.94;;;12.93;81.92
12360;BME280;6244;51.460;7.090;2023-05-11T01:22:17;100449.84;;;12.66;83.09
12360;BME280;6244;51.460;7.090;2023-05-11T01:27:39;100447.44;;;12.89;83.25
12360;BME280;6244;51.460;7.090;2023-05-11T01:32:41;100447.31;;;13.05;82.81
12360;BME280;6244;51.460;7.090;2023-05-11T01:37:40;100447.97;;;13.36;81.06
12360;BME280;6244;51.460;7.090;2023-05-11T01:42:44;100447.88;;;12.96;81.45
12360;BME280;6244;51.460;7.090;2023-05-11T01:47:46;100452.63;;;13.18;81.47
12360;BME280;6244;51.460;7.090;2023-05-11T01:52:45;100455.22;;;13.32;81.04
12360;BME280;6244;51.460;7.090;2023-05-11T01:57:43;100454.94;;;13.49;80.67
12360;BME280;6244;51.460;7.090;2023-05-11T02:02:41;100459.91;;;13.00;81.60
12360;BME280;6244;51.460;7.090;2023-05-11T02:07:41;100462.91;;;12.67;82.85
12360;BME280;6244;51.460;7.090;2023-05-11T02:12:39;100468.19;;;12.53;83.55
12360;BME280;6244;51.460;7.090;2023-05-11T02:17:38;100463.84;;;12.66;83.37
12360;BME280;6244;51.460;7.090;2023-05-11T02:22:36;100454.38;;;12.49;83.48
12360;BME280;6244;51.460;7.090;2023-05-11T02:27:34;100461.78;;;12.57;84.38
12360;BME280;6244;51.460;7.090;2023-05-11T02:32:33;100468.19;;;12.39;84.37
12360;BME280;6244;51.460;7.090;2023-05-11T02:37:32;100468.00;;;12.27;85.35
12360;BME280;6244;51.460;7.090;2023-05-11T02:42:35;100466.41;;;12.39;85.51
12360;BME280;6244;51.460;7.090;2023-05-11T02:47:38;100467.72;;;12.46;85.19
12360;BME280;6244;51.460;7.090;2023-05-11T02:52:42;100466.69;;;12.49;84.72
12360;BME280;6244;51.460;7.090;2023-05-11T02:57:41;100458.75;;;12.77;83.99
12360;BME280;6244;51.460;7.090;2023-05-11T03:02:38;100468.19;;;12.53;83.46
12360;BME280;6244;51.460;7.090;2023-05-11T03:07:35;100468.50;;;12.89;83.41
12360;BME280;6244;51.460;7.090;2023-05-11T03:12:31;100468.53;;;12.75;82.66
12360;BME280;6244;51.460;7.090;2023-05-11T03:17:30;100469.72;;;12.43;83.18
12360;BME280;6244;51.460;7.090;2023-05-11T03:22:28;100463.50;;;12.29;84.25
12360;BME280;6244;51.460;7.090;2023-05-11T03:27:26;100466.63;;;12.77;83.61
12360;BME280;6244;51.460;7.090;2023-05-11T03:32:22;100452.50;;;13.34;82.27
12360;BME280;6244;51.460;7.090;2023-05-11T03:37:21;100456.44;;;13.41;80.55
12360;BME280;6244;51.460;7.090;2023-05-11T03:42:19;100444.94;;;13.42;80.34
12360;BME280;6244;51.460;7.090;2023-05-11T03:47:16;100447.63;;;13.67;79.37
12360;BME280;6244;51.460;7.090;2023-05-11T03:52:14;100438.34;;;13.74;78.36
12360;BME280;6244;51.460;7.090;2023-05-11T03:57:12;100440.25;;;13.85;77.49
12360;BME280;6244;51.460;7.090;2023-05-11T04:02:09;100449.59;;;13.24;79.07
12360;BME280;6244;51.460;7.090;2023-05-11T04:07:06;100453.06;;;12.98;80.21
12360;BME280;6244;51.460;7.090;2023-05-11T04:12:03;100457.16;;;13.02;80.59
12360;BME280;6244;51.460;7.090;2023-05-11T04:17:01;100460.47;;;13.19;80.27
12360;BME280;6244;51.460;7.090;2023-05-11T04:21:57;100456.97;;;13.19;80.07
12360;BME280;6244;51.460;7.090;2023-05-11T04:26:56;100465.97;;;13.29;79.38
12360;BME280;6244;51.460;7.090;2023-05-11T04:31:53;100464.94;;;12.90;80.85
12360;BME280;6244;51.460;7.090;2023-05-11T04:36:51;100465.47;;;12.96;81.88
12360;BME280;6244;51.460;7.090;2023-05-11T04:41:47;100476.00;;;13.37;80.86
12360;BME280;6244;51.460;7.090;2023-05-11T04:46:43;100476.59;;;13.55;79.96
12360;BME280;6244;51.460;7.090;2023-05-11T04:51:40;100481.44;;;13.61;78.54
12360;BME280;6244;51.460;7.090;2023-05-11T04:56:38;100488.09;;;13.54;79.01
12360;BME280;6244;51.460;7.090;2023-05-11T05:01:35;100489.19;;;13.37;79.00
12360;BME280;6244;51.460;7.090;2023-05-11T05:06:32;100489.66;;;13.02;81.07
12360;BME280;6244;51.460;7.090;2023-05-11T05:11:28;100492.84;;;13.07;81.01
12360;BME280;6244;51.460;7.090;2023-05-11T05:16:26;100494.56;;;12.94;81.61
12360;BME280;6244;51.460;7.090;2023-05-11T05:21:23;100506.31;;;13.03;82.08
12360;BME280;6244;51.460;7.090;2023-05-11T05:26:20;100504.34;;;13.33;81.15
12360;BME280;6244;51.460;7.090;2023-05-11T05:31:17;100507.03;;;13.19;81.18
12360;BME280;6244;51.460;7.090;2023-05-11T05:36:14;100515.63;;;13.35;80.59
12360;BME280;6244;51.460;7.090;2023-05-11T05:41:11;100504.22;;;13.08;80.74
12360;BME280;6244;51.460;7.090;2023-05-11T05:46:08;100519.03;;;12.82;82.01
12360;BME280;6244;51.460;7.090;2023-05-11T05:51:04;100513.94;;;12.93;82.83
12360;BME280;6244;51.460;7.090;2023-05-11T05:56:03;100516.63;;;13.06;81.81
12360;BME280;6244;51.460;7.090;2023-05-11T06:00:59;100522.91;;;13.17;82.67
12360;BME280;6244;51.460;7.090;2023-05-11T06:05:56;100527.66;;;13.39;81.24
12360;BME280;6244;51.460;7.090;2023-05-11T06:10:53;100536.72;;;13.35;80.28
12360;BME280;6244;51.460;7.090;2023-05-11T06:15:51;100534.69;;;13.53;79.91
12360;BME280;6244;51.460;7.090;2023-05-11T06:20:48;100534.09;;;13.35;80.32
12360;BME280;6244;51.460;7.090;2023-05-11T06:25:44;100539.13;;;13.52;79.71
12360;BME280;6244;51.460;7.090;2023-05-11T06:30:41;100530.06;;;13.57;78.25
12360;BME280;6244;51.460;7.090;2023-05-11T06:35:39;100540.81;;;13.54;77.51
12360;BME280;6244;51.460;7.090;2023-05-11T06:40:35;100535.47;;;13.68;76.43
12360;BME280;6244;51.460;7.090;2023-05-11T06:45:32;100527.13;;;13.61;76.97
12360;BME280;6244;51.460;7.090;2023-05-11T06:50:29;100536.72;;;13.89;75.94
12360;BME280;6244;51.460;7.090;2023-05-11T06:55:26;100527.25;;;14.50;75.42
12360;BME280;6244;51.460;7.090;2023-05-11T07:00:23;100533.94;;;15.42;74.09
12360;BME280;6244;51.460;7.090;2023-05-11T07:05:20;100527.63;;;15.55;69.31
12360;BME280;6244;51.460;7.090;2023-05-11T07:10:16;100528.25;;;14.98;70.48
12360;BME280;6244;51.460;7.090;2023-05-11T07:15:15;100529.38;;;14.45;71.32
12360;BME280;6244;51.460;7.090;2023-05-11T07:20:11;100530.41;;;14.04;73.82
12360;BME280;6244;51.460;7.090;2023-05-11T07:25:08;100537.19;;;14.47;72.88
12360;BME280;6244;51.460;7.090;2023-05-11T07:30:06;100536.13;;;14.62;71.52
12360;BME280;6244;51.460;7.090;2023-05-11T07:35:04;100538.31;;;14.93;72.63
12360;BME280;6244;51.460;7.090;2023-05-11T07:40:02;100542.88;;;15.28;70.56
12360;BME280;6244;51.460;7.090;2023-05-11T07:44:59;100540.47;;;15.12;69.11
12360;BME280;6244;51.460;7.090;2023-05-11T07:49:55;100532.00;;;14.83;68.71
12360;BME280;6244;51.460;7.090;2023-05-11T07:54:53;100534.03;;;14.67;68.05
12360;BME280;6244;51.460;7.090;2023-05-11T07:59:50;100538.38;;;14.55;68.99
12360;BME280;6244;51.460;7.090;2023-05-11T08:04:47;100521.97;;;14.76;69.22
12360;BME280;6244;51.460;7.090;2023-05-11T08:09:43;100529.56;;;15.53;68.17
12360;BME280;6244;51.460;7.090;2023-05-11T08:14:41;100530.91;;;17.30;60.68
12360;BME280;6244;51.460;7.090;2023-05-11T08:19:38;100533.06;;;17.68;57.83
12360;BME280;6244;51.460;7.090;2023-05-11T08:24:34;100535.84;;;17.67;58.43
12360;BME280;6244;51.460;7.090;2023-05-11T08:29:31;100532.81;;;17.39;57.58
12360;BME280;6244;51.460;7.090;2023-05-11T08:34:29;100536.03;;;16.77;59.90
12360;BME280;6244;51.460;7.090;2023-05-11T08:39:25;100532.78;;;16.73;62.02
12360;BME280;6244;51.460;7.090;2023-05-11T08:44:22;100529.91;;;17.42;60.39
12360;BME280;6244;51.460;7.090;2023-05-11T08:49:19;100532.56;;;18.06;58.90
12360;BME280;6244;51.460;7.090;2023-05-11T08:54:18;100533.47;;;17.64;58.09
12360;BME280;6244;51.460;7.090;2023-05-11T08:59:14;100532.78;;;16.85;60.75
12360;BME280;6244;51.460;7.090;2023-05-11T09:04:12;100531.16;;;17.27;60.66
12360;BME280;6244;51.460;7.090;2023-05-11T09:09:09;100540.22;;;17.56;58.68
12360;BME280;6244;51.460;7.090;2023-05-11T09:14:07;100532.59;;;17.74;57.25
12360;BME280;6244;51.460;7.090;2023-05-11T09:19:04;100531.13;;;18.02;56.29
12360;BME280;6244;51.460;7.090;2023-05-11T09:24:02;100525.63;;;17.94;57.75
12360;BME280;6244;51.460;7.090;2023-05-11T09:28:58;100534.56;;;17.93;56.39
12360;BME280;6244;51.460;7.090;2023-05-11T09:34:07;100521.09;;;17.42;55.13
12360;BME280;6244;51.460;7.090;2023-05-11T09:39:04;100526.00;;;17.14;59.12
12360;BME280;6244;51.460;7.090;2023-05-11T09:44:05;100522.41;;;17.04;59.91
12360;BME280;6244;51.460;7.090;2023-05-11T09:49:06;100540.25;;;16.91;62.06
12360;BME280;6244;51.460;7.090;2023-05-11T09:54:15;100529.25;;;16.62;62.27
12360;BME280;6244;51.460;7.090;2023-05-11T09:59:14;100541.13;;;16.34;62.91
12360;BME280;6244;51.460;7.090;2023-05-11T10:04:12;100530.41;;;16.13;63.61
12360;BME280;6244;51.460;7.090;2023-05-11T10:09:09;100530.38;;;16.02;64.28
12360;BME280;6244;51.460;7.090;2023-05-11T10:14:05;100530.41;;;15.78;64.62
12360;BME280;6244;51.460;7.090;2023-05-11T10:19:04;100540.84;;;15.68;65.04
12360;BME280;6244;51.460;7.090;2023-05-11T10:24:02;100545.28;;;15.68;66.92
12360;BME280;6244;51.460;7.090;2023-05-11T10:28:59;100544.22;;;15.57;68.10
12360;BME280;6244;51.460;7.090;2023-05-11T10:33:57;100543.34;;;15.46;69.45
12360;BME280;6244;51.460;7.090;2023-05-11T10:38:53;100532.31;;;15.28;71.41
12360;BME280;6244;51.460;7.090;2023-05-11T10:44:06;100539.97;;;15.07;74.13
12360;BME280;6244;51.460;7.090;2023-05-11T10:49:20;100539.44;;;14.65;77.16
12360;BME280;6244;51.460;7.090;2023-05-11T10:54:28;100544.38;;;14.45;78.15
12360;BME280;6244;51.460;7.090;2023-05-11T11:05:06;100553.53;;;13.47;84.99
12360;BME280;6244;51.460;7.090;2023-05-11T11:10:06;100557.53;;;13.26;87.52
12360;BME280;6244;51.460;7.090;2023-05-11T11:15:05;100546.47;;;13.06;88.50
12360;BME280;6244;51.460;7.090;2023-05-11T11:20:03;100552.09;;;13.00;89.68
12360;BME280;6244;51.460;7.090;2023-05-11T11:25:04;100549.13;;;12.92;90.38
12360;BME280;6244;51.460;7.090;2023-05-11T11:30:18;100548.06;;;12.94;91.66
12360;BME280;6244;51.460;7.090;2023-05-11T11:35:46;100553.06;;;12.85;91.78
12360;BME280;6244;51.460;7.090;2023-05-11T11:40:45;100540.19;;;12.80;92.26
12360;BME280;6244;51.460;7.090;2023-05-11T11:45:51;100541.38;;;13.17;92.66
12360;BME280;6244;51.460;7.090;2023-05-11T11:50:49;100540.81;;;13.54;92.96
12360;BME280;6244;51.460;7.090;2023-05-11T11:55:56;100540.47;;;13.85;92.43
12360;BME280;6244;51.460;7.090;2023-05-11T12:00:53;100536.09;;;14.11;91.58
12360;BME280;6244;51.460;7.090;2023-05-11T12:05:53;100529.88;;;14.37;91.58
12360;BME280;6244;51.460;7.090;2023-05-11T12:10:53;100537.66;;;15.03;92.00
12360;BME280;6244;51.460;7.090;2023-05-11T12:16:06;100543.44;;;15.44;90.58
12360;BME280;6244;51.460;7.090;2023-05-11T12:21:03;100532.38;;;15.39;88.45
12360;BME280;6244;51.460;7.090;2023-05-11T12:26:00;100531.22;;;15.31;84.74
12360;BME280;6244;51.460;7.090;2023-05-11T12:30:58;100536.16;;;15.72;87.04
12360;BME280;6244;51.460;7.090;2023-05-11T12:35:55;100513.56;;;15.55;83.02
12360;BME280;6244;51.460;7.090;2023-05-11T12:40:52;100518.56;;;15.47;81.83
12360;BME280;6244;51.460;7.090;2023-05-11T12:45:49;100509.22;;;15.67;84.02
12360;BME280;6244;51.460;7.090;2023-05-11T12:50:46;100501.47;;;15.88;84.25
12360;BME280;6244;51.460;7.090;2023-05-11T12:55:44;100494.44;;;16.33;82.91
12360;BME280;6244;51.460;7.090;2023-05-11T13:00:50;100508.91;;;16.62;83.50
12360;BME280;6244;51.460;7.090;2023-05-11T13:05:50;100503.00;;;16.59;82.00
12360;BME280;6244;51.460;7.090;2023-05-11T13:10:46;100500.13;;;16.73;82.72
12360;BME280;6244;51.460;7.090;2023-05-11T13:15:50;100500.13;;;16.84;76.19
12360;BME280;6244;51.460;7.090;2023-05-11T13:20:47;100495.66;;;16.29;76.03
12360;BME280;6244;51.460;7.090;2023-05-11T13:25:51;100497.03;;;15.99;78.13
12360;BME280;6244;51.460;7.090;2023-05-11T13:30:49;100500.34;;;15.79;76.28
12360;BME280;6244;51.460;7.090;2023-05-11T13:35:46;100503.16;;;16.00;74.92
12360;BME280;6244;51.460;7.090;2023-05-11T13:40:42;100496.25;;;16.32;76.71
12360;BME280;6244;51.460;7.090;2023-05-11T13:45:41;100495.31;;;16.56;76.17
12360;BME280;6244;51.460;7.090;2023-05-11T13:50:37;100491.94;;;16.65;69.32
12360;BME280;6244;51.460;7.090;2023-05-11T13:55:34;100491.22;;;16.74;69.61
12360;BME280;6244;51.460;7.090;2023-05-11T14:00:32;100488.22;;;16.67;68.85
12360;BME280;6244;51.460;7.090;2023-05-11T14:05:30;100490.75;;;16.69;68.21
12360;BME280;6244;51.460;7.090;2023-05-11T14:10:27;100493.41;;;16.80;66.54
12360;BME280;6244;51.460;7.090;2023-05-11T14:15:23;100488.81;;;16.82;66.45
12360;BME280;6244;51.460;7.090;2023-05-11T14:20:20;100494.38;;;16.68;68.25
12360;BME280;6244;51.460;7.090;2023-05-11T14:25:18;100500.91;;;16.06;69.53
12360;BME280;6244;51.460;7.090;2023-05-11T14:30:14;100511.56;;;15.94;69.41
12360;BME280;6244;51.460;7.090;2023-05-11T14:35:11;100512.19;;;15.97;68.66
12360;BME280;6244;51.460;7.090;2023-05-11T14:40:08;100513.63;;;15.90;70.81
12360;BME280;6244;51.460;7.090;2023-05-11T14:45:07;100511.91;;;15.78;72.65
12360;BME280;6244;51.460;7.090;2023-05-11T14:50:05;100506.72;;;15.76;73.83
12360;BME280;6244;51.460;7.090;2023-05-11T14:55:02;100511.66;;;15.81;73.73
12360;BME280;6244;51.460;7.090;2023-05-11T14:59:58;100510.06;;;15.67;74.93
12360;BME280;6244;51.460;7.090;2023-05-11T15:04:56;100515.03;;;15.59;76.54
12360;BME280;6244;51.460;7.090;2023-05-11T15:09:52;100515.59;;;15.51;77.28
12360;BME280;6244;51.460;7.090;2023-05-11T15:14:50;100511.00;;;15.42;78.23
12360;BME280;6244;51.460;7.090;2023-05-11T15:19:46;100506.44;;;15.44;78.31
12360;BME280;6244;51.460;7.090;2023-05-11T15:24:44;100502.31;;;15.40;78.25
12360;BME280;6244;51.460;7.090;2023-05-11T15:29:41;100508.91;;;15.35;78.51
12360;BME280;6244;51.460;7.090;2023-05-11T15:34:37;100509.13;;;15.55;78.88
12360;BME280;6244;51.460;7.090;2023-05-11T15:39:34;100511.34;;;15.62;78.06
12360;BME280;6244;51.460;7.090;2023-05-11T15:44:31;100509.47;;;15.75;78.06
12360;BME280;6244;51.460;7.090;2023-05-11T15:49:28;100509.41;;;15.88;77.50
12360;BME280;6244;51.460;7.090;2023-05-11T15:54:25;100510.63;;;15.95;75.38
12360;BME280;6244;51.460;7.090;2023-05-11T15:59:21;100510.72;;;15.93;74.31
12360;BME280;6244;51.460;7.090;2023-05-11T16:04:19;100520.00;;;15.88;74.70
12360;BME280;6244;51.460;7.090;2023-05-11T16:09:16;100517.22;;;15.89;74.92
12360;BME280;6244;51.460;7.090;2023-05-11T16:14:12;100527.53;;;15.81;75.25
12360;BME280;6244;51.460;7.090;2023-05-11T16:19:09;100525.28;;;15.88;75.49
12360;BME280;6244;51.460;7.090;2023-05-11T16:24:07;100521.88;;;15.85;75.55
12360;BME280;6244;51.460;7.090;2023-05-11T16:29:04;100520.56;;;15.80;76.56
12360;BME280;6244;51.460;7.090;2023-05-11T16:34:00;100528.78;;;15.99;77.06
12360;BME280;6244;51.460;7.090;2023-05-11T16:38:57;100514.06;;;16.30;75.52
12360;BME280;6244;51.460;7.090;2023-05-11T16:43:55;100506.84;;;16.43;75.04
12360;BME280;6244;51.460;7.090;2023-05-11T16:48:51;100511.44;;;16.41;75.00
12360;BME280;6244;51.460;7.090;2023-05-11T16:53:48;100502.75;;;16.39;74.64
12360;BME280;6244;51.460;7.090;2023-05-11T16:58:45;100514.06;;;16.30;75.39
12360;BME280;6244;51.460;7.090;2023-05-11T17:03:43;100507.31;;;16.15;75.71
12360;BME280;6244;51.460;7.090;2023-05-11T17:08:40;100512.78;;;15.90;77.42
12360;BME280;6244;51.460;7.090;2023-05-11T17:13:37;100511.66;;;15.81;78.33
12360;BME280;6244;51.460;7.090;2023-05-11T17:18:33;100504.28;;;15.73;79.57
12360;BME280;6244;51.460;7.090;2023-05-11T17:23:31;100507.41;;;15.67;80.37
12360;BME280;6244;51.460;7.090;2023-05-11T17:28:29;100511.97;;;15.65;80.41
12360;BME280;6244;51.460;7.090;2023-05-11T17:33:25;100508.38;;;15.66;80.74
12360;BME280;6244;51.460;7.090;2023-05-11T17:38:22;100519.56;;;15.70;81.41
12360;BME280;6244;51.460;7.090;2023-05-11T17:43:20;100513.41;;;15.69;80.68
12360;BME280;6244;51.460;7.090;2023-05-11T17:48:17;100525.81;;;15.69;80.53
12360;BME280;6244;51.460;7.090;2023-05-11T17:53:14;100528.25;;;15.59;81.25
12360;BME280;6244;51.460;7.090;2023-05-11T17:58:10;100526.19;;;15.51;81.83
12360;BME280;6244;51.460;7.090;2023-05-11T18:03:08;100525.00;;;15.55;81.26
12360;BME280;6244;51.460;7.090;2023-05-11T18:08:06;100530.16;;;15.57;81.31
12360;BME280;6244;51.460;7.090;2023-05-11T18:13:03;100534.72;;;15.55;81.75
12360;BME280;6244;51.460;7.090;2023-05-11T18:17:59;100537.59;;;15.52;81.09
12360;BME280;6244;51.460;7.090;2023-05-11T18:22:58;100529.25;;;15.45;81.71
12360;BME280;6244;51.460;7.090;2023-05-11T18:27:54;100530.84;;;15.48;81.61
12360;BME280;6244;51.460;7.090;2023-05-11T18:32:51;100534.31;;;15.48;81.72
12360;BME280;6244;51.460;7.090;2023-05-11T18:37:48;100539.53;;;15.37;80.88
12360;BME280;6244;51.460;7.090;2023-05-11T18:42:46;100529.88;;;15.25;80.93
12360;BME280;6244;51.460;7.090;2023-05-11T18:47:42;100530.94;;;15.22;80.28
12360;BME280;6244;51.460;7.090;2023-05-11T18:52:40;100543.13;;;15.12;81.09
12360;BME280;6244;51.460;7.090;2023-05-11T18:57:37;100544.66;;;15.04;81.54
12360;BME280;6244;51.460;7.090;2023-05-11T19:02:35;100550.78;;;15.04;80.42
12360;BME280;6244;51.460;7.090;2023-05-11T19:07:31;100549.50;;;14.97;79.99
12360;BME280;6244;51.460;7.090;2023-05-11T19:12:28;100555.97;;;14.93;80.50
12360;BME280;6244;51.460;7.090;2023-05-11T19:17:24;100557.22;;;14.87;80.73
12360;BME280;6244;51.460;7.090;2023-05-11T19:22:22;100559.69;;;14.90;80.71
12360;BME280;6244;51.460;7.090;2023-05-11T19:27:19;100568.44;;;14.91;80.58
12360;BME280;6244;51.460;7.090;2023-05-11T19:32:16;100568.75;;;14.86;80.88
12360;BME280;6244;51.460;7.090;2023-05-11T19:37:13;100576.47;;;14.89;80.88
12360;BME280;6244;51.460;7.090;2023-05-11T19:42:11;100568.97;;;14.83;81.25
12360;BME280;6244;51.460;7.090;2023-05-11T19:47:08;100577.63;;;14.85;81.10
12360;BME280;6244;51.460;7.090;2023-05-11T19:52:05;100571.41;;;14.86;81.30
12360;BME280;6244;51.460;7.090;2023-05-11T19:57:02;100576.56;;;14.88;81.50
12360;BME280;6244;51.460;7.090;2023-05-11T20:02:00;100578.59;;;14.84;81.19
12360;BME280;6244;51.460;7.090;2023-05-11T20:06:57;100584.31;;;14.78;81.83
12360;BME280;6244;51.460;7.090;2023-05-11T20:11:54;100580.72;;;14.79;81.65
12360;BME280;6244;51.460;7.090;2023-05-11T20:16:50;100581.78;;;14.77;81.67
12360;BME280;6244;51.460;7.090;2023-05-11T20:21:48;100579.22;;;14.75;81.96
12360;BME280;6244;51.460;7.090;2023-05-11T20:26:45;100578.09;;;14.66;82.22
12360;BME280;6244;51.460;7.090;2023-05-11T20:31:42;100575.69;;;14.36;83.41
12360;BME280;6244;51.460;7.090;2023-05-11T20:36:40;100560.59;;;14.26;83.90
12360;BME280;6244;51.460;7.090;2023-05-11T20:41:38;100563.56;;;14.21;84.77
12360;BME280;6244;51.460;7.090;2023-05-11T20:46:35;100564.94;;;14.14;85.51
12360;BME280;6244;51.460;7.090;2023-05-11T20:51:32;100561.41;;;14.14;85.77
12360;BME280;6244;51.460;7.090;2023-05-11T20:56:28;100559.56;;;14.16;86.14
12360;BME280;6244;51.460;7.090;2023-05-11T21:01:26;100550.03;;;14.13;86.61
12360;BME280;6244;51.460;7.090;2023-05-11T21:06:23;100560.38;;;14.03;86.92
12360;BME280;6244;51.460;7.090;2023-05-11T21:11:19;100551.28;;;14.07;87.28
12360;BME280;6244;51.460;7.090;2023-05-11T21:16:16;100547.50;;;14.11;87.34
12360;BME280;6244;51.460;7.090;2023-05-11T21:21:14;100549.81;;;14.03;87.72
12360;BME280;6244;51.460;7.090;2023-05-11T21:26:10;100553.31;;;14.04;87.73
12360;BME280;6244;51.460;7.090;2023-05-11T21:31:07;100552.47;;;14.03;87.74
12360;BME280;6244;51.460;7.090;2023-05-11T21:36:04;100545.38;;;14.04;87.85
12360;BME280;6244;51.460;7.090;2023-05-11T21:41:03;100538.41;;;14.03;88.02
12360;BME280;6244;51.460;7.090;2023-05-11T21:46:00;100543.97;;;13.98;88.23
12360;BME280;6244;51.460;7.090;2023-05-11T21:50:57;100544.94;;;13.97;88.61
12360;BME280;6244;51.460;7.090;2023-05-11T21:55:53;100543.25;;;13.96;88.63
12360;BME280;6244;51.460;7.090;2023-05-11T22:00:51;100546.84;;;13.95;88.79
12360;BME280;6244;51.460;7.090;2023-05-11T22:05:50;100547.56;;;13.97;88.78
12360;BME280;6244;51.460;7.090;2023-05-11T22:10:46;100539.44;;;14.00;88.51
12360;BME280;6244;51.460;7.090;2023-05-11T22:15:43;100534.59;;;13.94;88.61
12360;BME280;6244;51.460;7.090;2023-05-11T22:20:41;100541.56;;;13.95;88.55
12360;BME280;6244;51.460;7.090;2023-05-11T22:25:37;100526.34;;;13.86;88.93
12360;BME280;6244;51.460;7.090;2023-05-11T22:30:35;100520.53;;;13.81;89.16
12360;BME280;6244;51.460;7.090;2023-05-11T22:35:31;100519.81;;;13.79;89.16
12360;BME280;6244;51.460;7.090;2023-05-11T22:40:29;100519.34;;;13.72;89.25
12360;BME280;6244;51.460;7.090;2023-05-11T22:45:26;100512.69;;;13.67;89.76
12360;BME280;6244;51.460;7.090;2023-05-11T22:50:22;100521.34;;;13.69;89.75
12360;BME280;6244;51.460;7.090;2023-05-11T22:55:19;100508.66;;;13.61;90.01
12360;BME280;6244;51.460;7.090;2023-05-11T23:00:19;100504.44;;;13.59;89.93
12360;BME280;6244;51.460;7.090;2023-05-11T23:05:15;100502.75;;;13.58;89.87
12360;BME280;6244;51.460;7.090;2023-05-11T23:10:11;100505.78;;;13.51;90.20
12360;BME280;6244;51.460;7.090;2023-05-11T23:15:09;100487.44;;;13.50;90.24
12360;BME280;6244;51.460;7.090;2023-05-11T23:20:08;100487.00;;;13.43;90.85
12360;BME280;6244;51.460;7.090;2023-05-11T23:25:05;100487.94;;;13.42;90.91
12360;BME280;6244;51.460;7.090;2023-05-11T23:30:02;100474.94;;;13.39;91.04
12360;BME280;6244;51.460;7.090;2023-05-11T23:34:59;100466.72;;;13.31;91.28
12360;BME280;6244;51.460;7.090;2023-05-11T23:39:57;100462.28;;;13.32;91.89
12360;BME280;6244;51.460;7.090;2023-05-11T23:44:53;100459.44;;;13.35;91.94
12360;BME280;6244;51.460;7.090;2023-05-11T23:49:50;100443.00;;;13.31;91.91
12360;BME280;6244;51.460;7.090;2023-05-11T23:54:46;100443.59;;;13.22;92.16
12360;BME280;6244;51.460;7.090;2023-05-11T23:59:44;100445.00;;;13.28;92.79
